Time;durP1;ratioP1;P1;durP2;ratioP2;P2;SDS_P1;SDS_P2;PMS_P1;PMS_P2;Temp;Humidity;BMP_temperature;BMP_pressure;BME280_temperature;BME280_humidity;BME280_pressure;Samples;Min_cycle;Max_cycle;Signal;HPM_P1;HPM_P2
2023/05/01 00:00:09;;;;;;;8.70;6.50;;;7.50;99.90;;;;;;5015167;28;20243;-66
2023/05/01 00:02:35;;;;;;;8.40;6.13;;;7.40;99.90;;;;;;5019220;28;20251;-66
2023/05/01 00:05:02;;;;;;;8.30;5.47;;;7.40;99.90;;;;;;5010405;28;20518;-67
2023/05/01 00:07:29;;;;;;;10.43;6.13;;;7.40;99.90;;;;;;5006334;28;20469;-66
2023/05/01 00:09:55;;;;;;;6.63;6.03;;;7.30;99.90;;;;;;5009753;28;20435;-66
2023/05/01 00:12:21;;;;;;;7.90;5.70;;;7.30;99.90;;;;;;5012143;28;20450;-66
2023/05/01 00:14:47;;;;;;;11.00;5.33;;;7.20;99.90;;;;;;4982310;28;20452;-66
2023/05/01 00:17:12;;;;;;;8.87;5.50;;;7.20;99.90;;;;;;5015039;28;20192;-66
2023/05/01 00:19:38;;;;;;;5.87;5.37;;;7.20;99.90;;;;;;5007704;28;20196;-65
2023/05/01 00:22:04;;;;;;;12.47;6.57;;;7.20;99.90;;;;;;5013591;28;20407;-65
2023/05/01 00:24:29;;;;;;;9.80;4.97;;;7.20;99.90;;;;;;5008501;28;20176;-65
2023/05/01 00:26:55;;;;;;;5.97;5.33;;;7.20;99.90;;;;;;5020824;28;20206;-68
2023/05/01 00:29:21;;;;;;;5.63;5.00;;;7.20;99.90;;;;;;5015359;28;20207;-65
2023/05/01 00:31:47;;;;;;;6.47;5.10;;;7.20;99.90;;;;;;5017724;28;20167;-69
2023/05/01 00:34:13;;;;;;;9.20;6.03;;;7.20;99.90;;;;;;5010108;28;20416;-66
2023/05/01 00:36:38;;;;;;;8.43;5.30;;;7.20;99.90;;;;;;5008646;28;20199;-64
2023/05/01 00:39:06;;;;;;;5.57;4.57;;;7.20;99.90;;;;;;5010716;28;20177;-66
2023/05/01 00:41:33;;;;;;;11.10;5.03;;;7.20;99.90;;;;;;5006919;28;20211;-66
2023/05/01 00:43:58;;;;;;;6.60;4.63;;;7.30;99.90;;;;;;5012495;28;20503;-67
2023/05/01 00:46:24;;;;;;;6.50;4.83;;;7.30;99.90;;;;;;5009773;28;20899;-67
2023/05/01 00:48:51;;;;;;;5.97;3.50;;;7.20;99.90;;;;;;5012682;28;20211;-67
2023/05/01 00:51:18;;;;;;;5.00;4.20;;;7.20;99.90;;;;;;5001908;28;20467;-65
2023/05/01 00:53:44;;;;;;;6.40;4.90;;;7.20;99.90;;;;;;5014790;28;20414;-66
2023/05/01 00:56:10;;;;;;;5.47;4.43;;;7.20;99.90;;;;;;5012789;28;20427;-66
2023/05/01 00:58:37;;;;;;;7.40;5.40;;;7.30;99.90;;;;;;5010362;28;20176;-69
2023/05/01 01:01:03;;;;;;;13.53;4.90;;;7.20;99.90;;;;;;5009411;28;20514;-67
2023/05/01 01:03:30;;;;;;;7.60;4.57;;;7.20;99.90;;;;;;5003332;28;20411;-66
2023/05/01 01:06:23;;;;;;;6.47;4.63;;;7.20;99.90;;;;;;4996917;28;20466;-64
2023/05/01 01:09:13;;;;;;;8.30;4.50;;;7.10;99.90;;;;;;5002067;28;20507;-68
2023/05/01 01:11:57;;;;;;;8.50;4.23;;;7.20;99.90;;;;;;5009508;28;20879;-66
2023/05/01 01:15:06;;;;;;;5.73;4.47;;;7.10;99.90;;;;;;4998132;28;20972;-65
2023/05/01 01:17:41;;;;;;;7.03;3.97;;;7.10;99.90;;;;;;4987078;28;20478;-65
2023/05/01 01:20:31;;;;;;;6.17;4.67;;;7.00;99.90;;;;;;5012574;28;20426;-64
2023/05/01 01:23:19;;;;;;;6.17;4.93;;;7.00;99.90;;;;;;5011997;28;20419;-65
2023/05/01 01:26:09;;;;;;;8.77;4.90;;;6.90;99.90;;;;;;5010474;28;20459;-64
2023/05/01 01:28:53;;;;;;;14.00;5.60;;;6.90;99.90;;;;;;5015418;28;20726;-65
2023/05/01 01:31:40;;;;;;;7.63;4.43;;;6.90;99.90;;;;;;4996922;28;20578;-65
2023/05/01 01:34:25;;;;;;;5.37;4.50;;;6.80;99.90;;;;;;5002382;28;20408;-65
2023/05/01 01:37:40;;;;;;;8.27;4.50;;;6.80;99.90;;;;;;5001539;28;20437;-65
2023/05/01 01:40:11;;;;;;;5.60;4.53;;;6.80;99.90;;;;;;4933104;29;20981;-66
2023/05/01 01:42:41;;;;;;;9.60;4.97;;;6.80;99.90;;;;;;4991083;28;20412;-65
2023/05/01 01:45:18;;;;;;;6.67;4.70;;;6.80;99.90;;;;;;4983390;28;20503;-65
2023/05/01 01:47:44;;;;;;;7.27;5.70;;;6.80;99.90;;;;;;5014504;28;20857;-66
2023/05/01 01:50:11;;;;;;;9.10;5.47;;;6.80;99.90;;;;;;5013274;28;20428;-66
2023/05/01 01:52:41;;;;;;;5.07;3.53;;;6.80;99.90;;;;;;5009658;28;20491;-65
2023/05/01 01:55:10;;;;;;;6.90;4.53;;;6.80;99.90;;;;;;5008413;28;20753;-66
2023/05/01 01:57:38;;;;;;;7.53;4.47;;;6.80;99.90;;;;;;5003911;28;20468;-66
2023/05/01 02:00:07;;;;;;;6.90;4.67;;;6.70;99.90;;;;;;5006384;28;20522;-65
2023/05/01 02:02:36;;;;;;;6.70;4.90;;;6.70;99.90;;;;;;5021807;28;20422;-65
2023/05/01 02:05:01;;;;;;;6.93;4.67;;;6.70;99.90;;;;;;4985056;28;20427;-66
2023/05/01 02:07:29;;;;;;;6.40;4.57;;;6.70;99.90;;;;;;5001786;28;20463;-65
2023/05/01 02:09:56;;;;;;;5.43;4.70;;;6.70;99.90;;;;;;5003821;28;20446;-66
2023/05/01 02:12:23;;;;;;;8.40;4.50;;;6.60;99.90;;;;;;5010501;28;20411;-65
2023/05/01 02:14:52;;;;;;;12.53;5.40;;;6.60;99.90;;;;;;5012984;28;20481;-66
2023/05/01 02:17:19;;;;;;;13.70;4.90;;;6.60;99.90;;;;;;5002427;28;20499;-65
2023/05/01 02:19:45;;;;;;;7.70;4.73;;;6.70;99.90;;;;;;5009861;28;20521;-66
2023/05/01 02:22:12;;;;;;;7.90;4.80;;;6.60;99.90;;;;;;4993073;28;20440;-65
2023/05/01 02:24:39;;;;;;;5.30;4.50;;;6.60;99.90;;;;;;5008182;28;20419;-65
2023/05/01 02:27:13;;;;;;;6.27;5.20;;;6.60;99.90;;;;;;5019376;28;20459;-65
2023/05/01 02:29:39;;;;;;;5.10;4.60;;;6.60;99.90;;;;;;5000335;28;20761;-65
2023/05/01 02:32:05;;;;;;;8.40;4.57;;;6.60;99.90;;;;;;5007784;28;20436;-65
2023/05/01 02:34:34;;;;;;;7.90;5.10;;;6.50;99.90;;;;;;5007000;28;20174;-65
2023/05/01 02:37:00;;;;;;;8.40;5.30;;;6.50;99.90;;;;;;5016867;28;20183;-66
2023/05/01 02:39:25;;;;;;;5.63;4.67;;;6.40;99.90;;;;;;5011832;28;20489;-65
2023/05/01 02:44:17;;;;;;;7.80;4.50;;;6.40;99.90;;;;;;5051305;22;20234;-66
2023/05/01 02:46:46;;;;;;;5.13;4.63;;;6.40;99.90;;;;;;5040178;28;20800;-67
2023/05/01 02:49:12;;;;;;;7.43;4.70;;;6.40;99.90;;;;;;5045583;28;20445;-67
2023/05/01 02:51:39;;;;;;;6.57;3.80;;;6.40;99.90;;;;;;5050058;28;20414;-66
2023/05/01 02:54:04;;;;;;;6.80;4.73;;;6.40;99.90;;;;;;5047937;28;20425;-67
2023/05/01 02:56:30;;;;;;;8.13;4.97;;;6.40;99.90;;;;;;5050589;28;20424;-67
2023/05/01 02:58:56;;;;;;;7.93;4.67;;;6.40;99.90;;;;;;5044427;28;20501;-66
2023/05/01 03:01:22;;;;;;;5.77;4.50;;;6.30;99.90;;;;;;5043335;28;20261;-67
2023/05/01 03:03:47;;;;;;;7.53;4.13;;;6.30;99.90;;;;;;5042199;28;20553;-67
2023/05/01 03:06:13;;;;;;;6.77;4.70;;;6.30;99.90;;;;;;5042812;28;20256;-67
2023/05/01 03:08:39;;;;;;;6.70;5.47;;;6.30;99.90;;;;;;5051132;28;20182;-66
2023/05/01 03:11:08;;;;;;;9.03;4.43;;;6.30;99.90;;;;;;5043076;28;20179;-67
2023/05/01 03:13:34;;;;;;;5.23;4.73;;;6.30;99.90;;;;;;5042779;28;20950;-66
2023/05/01 03:16:00;;;;;;;6.80;4.77;;;6.30;99.90;;;;;;5041146;28;20422;-67
2023/05/01 03:18:26;;;;;;;4.90;4.40;;;6.30;99.90;;;;;;5043125;28;20417;-67
2023/05/01 03:20:53;;;;;;;7.13;4.70;;;6.30;99.90;;;;;;5045907;28;20424;-67
2023/05/01 03:23:18;;;;;;;5.93;4.50;;;6.20;99.90;;;;;;5043466;28;20198;-67
2023/05/01 03:25:44;;;;;;;11.30;4.70;;;6.20;99.90;;;;;;5048776;28;20981;-67
2023/05/01 03:28:10;;;;;;;9.03;4.70;;;6.20;99.90;;;;;;5043352;28;20170;-67
2023/05/01 03:30:35;;;;;;;4.73;4.30;;;6.20;99.90;;;;;;5049575;28;20190;-67
2023/05/01 03:33:01;;;;;;;6.07;4.70;;;6.20;99.90;;;;;;5045317;28;20281;-66
2023/05/01 03:35:27;;;;;;;10.63;5.10;;;6.20;99.90;;;;;;5042965;28;20273;-67
2023/05/01 03:37:52;;;;;;;4.83;3.97;;;6.10;99.90;;;;;;5042514;28;20498;-67
2023/05/01 03:40:18;;;;;;;7.73;4.17;;;6.10;99.90;;;;;;5047922;28;20170;-67
2023/05/01 03:42:44;;;;;;;8.00;5.13;;;6.10;99.90;;;;;;5048297;28;20630;-67
2023/05/01 03:45:10;;;;;;;7.40;4.13;;;6.10;99.90;;;;;;5043052;28;20859;-67
2023/05/01 03:47:35;;;;;;;6.30;4.30;;;6.10;99.90;;;;;;5042245;28;20199;-67
2023/05/01 03:50:02;;;;;;;7.53;4.43;;;6.10;99.90;;;;;;5020613;28;20477;-67
2023/05/01 03:52:27;;;;;;;7.67;4.77;;;6.10;99.90;;;;;;5042692;28;20631;-67
2023/05/01 03:54:53;;;;;;;6.50;5.00;;;6.10;99.90;;;;;;5050167;28;20475;-67
2023/05/01 03:57:22;;;;;;;6.23;4.47;;;6.20;99.90;;;;;;5038468;28;20179;-67
2023/05/01 03:59:48;;;;;;;6.97;4.60;;;6.20;99.90;;;;;;5042554;28;20174;-66
2023/05/01 04:02:14;;;;;;;8.83;4.50;;;6.20;99.90;;;;;;5039219;28;20465;-69
2023/05/01 04:04:40;;;;;;;6.57;4.63;;;6.30;99.90;;;;;;5042744;28;20920;-66
2023/05/01 04:07:06;;;;;;;7.87;4.40;;;6.30;99.90;;;;;;5042200;28;20503;-67
2023/05/01 04:09:31;;;;;;;6.13;5.50;;;6.40;99.90;;;;;;5042622;28;20175;-67
2023/05/01 04:11:57;;;;;;;6.17;4.20;;;6.40;99.90;;;;;;5047995;28;20183;-67
2023/05/01 04:14:23;;;;;;;6.60;4.87;;;6.40;99.90;;;;;;5046424;28;20173;-67
2023/05/01 04:16:49;;;;;;;6.17;4.90;;;6.40;99.90;;;;;;5047858;28;20956;-68
2023/05/01 04:19:15;;;;;;;9.00;4.10;;;6.50;99.90;;;;;;5042329;28;20186;-68
2023/05/01 04:21:41;;;;;;;5.50;5.10;;;6.50;99.90;;;;;;5042220;28;20846;-68
2023/05/01 04:24:06;;;;;;;7.57;4.03;;;6.50;99.90;;;;;;5039642;28;20194;-67
2023/05/01 04:26:32;;;;;;;5.63;4.13;;;6.60;99.90;;;;;;5043644;28;20191;-66
2023/05/01 04:28:59;;;;;;;10.97;4.50;;;6.60;99.90;;;;;;5049950;28;20172;-68
2023/05/01 04:31:25;;;;;;;4.73;4.20;;;6.70;99.90;;;;;;5045797;28;20185;-67
2023/05/01 04:33:50;;;;;;;10.30;4.87;;;6.70;99.90;;;;;;5044843;28;20425;-67
2023/05/01 04:36:16;;;;;;;6.77;4.00;;;6.70;99.90;;;;;;5048982;28;20170;-68
2023/05/01 04:38:41;;;;;;;7.03;4.20;;;6.80;99.90;;;;;;5040150;28;20225;-67
2023/05/01 04:41:07;;;;;;;6.10;3.73;;;6.80;99.90;;;;;;5051522;28;20195;-68
2023/05/01 04:43:33;;;;;;;4.30;3.33;;;6.90;99.90;;;;;;5049066;28;20281;-67
2023/05/01 04:45:58;;;;;;;4.10;3.70;;;6.90;99.90;;;;;;5044253;28;20226;-67
2023/05/01 04:48:24;;;;;;;7.27;3.90;;;7.00;99.90;;;;;;5049551;28;20183;-67
2023/05/01 04:50:50;;;;;;;5.07;4.00;;;7.00;99.90;;;;;;5043968;28;20693;-66
2023/05/01 04:53:16;;;;;;;7.57;5.00;;;7.00;99.90;;;;;;5048075;28;20425;-67
2023/05/01 04:55:42;;;;;;;11.07;4.53;;;7.10;99.90;;;;;;5051849;28;20217;-66
2023/05/01 04:58:07;;;;;;;6.67;4.57;;;7.10;99.90;;;;;;5047733;28;20414;-66
2023/05/01 05:00:34;;;;;;;8.00;5.43;;;7.20;99.90;;;;;;5053331;28;20177;-67
2023/05/01 05:02:59;;;;;;;5.77;4.57;;;7.20;99.90;;;;;;5046074;28;20190;-66
2023/05/01 05:05:25;;;;;;;5.30;4.37;;;7.30;99.90;;;;;;5041710;28;20413;-67
2023/05/01 05:07:50;;;;;;;5.70;3.73;;;7.40;99.90;;;;;;5047489;28;20186;-67
2023/05/01 05:10:16;;;;;;;8.10;4.70;;;7.50;99.90;;;;;;5036921;28;20179;-67
2023/05/01 05:12:41;;;;;;;8.60;4.60;;;7.60;99.90;;;;;;5048307;28;20256;-67
2023/05/01 05:15:07;;;;;;;7.30;4.33;;;7.70;99.90;;;;;;5043103;28;20202;-67
2023/05/01 05:17:33;;;;;;;4.20;3.70;;;7.80;99.90;;;;;;5052392;28;20183;-67
2023/05/01 05:19:59;;;;;;;7.20;4.77;;;8.10;99.90;;;;;;5045707;28;20787;-67
2023/05/01 05:22:25;;;;;;;6.97;4.10;;;8.50;99.90;;;;;;5041210;28;20254;-67
2023/05/01 05:25:02;;;;;;;5.70;3.57;;;9.10;99.90;;;;;;5049495;28;20421;-67
2023/05/01 05:27:28;;;;;;;4.60;3.97;;;9.70;99.90;;;;;;5051255;28;20202;-68
2023/05/01 05:29:54;;;;;;;5.77;4.03;;;9.90;99.90;;;;;;5049585;28;20418;-67
2023/05/01 05:32:19;;;;;;;6.33;3.57;;;10.30;99.90;;;;;;5044379;28;20190;-68
2023/05/01 05:34:46;;;;;;;5.90;5.10;;;10.80;99.90;;;;;;5052100;28;20555;-66
2023/05/01 05:37:11;;;;;;;5.90;3.97;;;11.10;99.90;;;;;;5041713;28;20188;-66
2023/05/01 05:39:37;;;;;;;7.27;3.80;;;11.60;99.90;;;;;;5044664;28;20426;-66
2023/05/01 05:42:03;;;;;;;4.87;3.60;;;11.80;99.90;;;;;;5046446;28;20192;-66
2023/05/01 05:44:30;;;;;;;5.10;3.80;;;12.00;99.90;;;;;;5035208;28;20187;-66
2023/05/01 05:46:56;;;;;;;4.13;3.70;;;12.40;99.90;;;;;;5045712;28;20203;-67
2023/05/01 05:49:21;;;;;;;4.27;3.87;;;12.40;99.90;;;;;;5044692;28;20503;-67
2023/05/01 05:51:47;;;;;;;3.30;2.90;;;12.20;99.90;;;;;;5044428;28;20176;-67
2023/05/01 05:54:12;;;;;;;4.60;3.57;;;12.70;99.90;;;;;;5043982;28;20206;-66
2023/05/01 05:56:38;;;;;;;3.60;3.30;;;13.30;99.90;;;;;;5043209;28;20182;-68
2023/05/01 05:59:05;;;;;;;6.10;3.40;;;13.60;99.40;;;;;;5036828;28;20185;-67
2023/05/01 06:01:31;;;;;;;5.00;3.60;;;13.90;98.50;;;;;;5044815;28;20171;-68
2023/05/01 06:03:57;;;;;;;5.80;3.40;;;14.30;98.50;;;;;;5042416;28;20444;-67
2023/05/01 06:06:23;;;;;;;7.67;4.40;;;14.50;96.10;;;;;;5052525;28;20522;-68
2023/05/01 06:08:48;;;;;;;4.90;3.60;;;14.50;97.10;;;;;;5037129;28;20177;-67
2023/05/01 06:11:14;;;;;;;4.90;3.70;;;14.20;97.00;;;;;;5044297;28;20510;-68
2023/05/01 06:13:40;;;;;;;4.60;4.13;;;14.50;95.50;;;;;;5044137;28;20194;-68
2023/05/01 06:16:06;;;;;;;5.07;3.50;;;14.50;95.10;;;;;;5043502;28;20422;-68
2023/05/01 06:18:32;;;;;;;5.63;3.57;;;14.90;94.30;;;;;;5046127;28;20178;-68
2023/05/01 06:20:58;;;;;;;5.10;3.93;;;15.60;93.40;;;;;;5023675;28;20491;-67
2023/05/01 06:23:24;;;;;;;4.03;3.20;;;14.80;93.90;;;;;;5033096;28;20205;-67
2023/05/01 06:25:50;;;;;;;8.57;4.67;;;15.30;93.60;;;;;;5033486;28;20461;-68
2023/05/01 06:28:16;;;;;;;5.53;3.20;;;15.90;92.70;;;;;;5051262;28;20421;-66
2023/05/01 06:30:41;;;;;;;5.10;3.40;;;16.00;92.10;;;;;;5043493;28;20539;-66
2023/05/01 06:33:08;;;;;;;3.50;3.20;;;16.70;90.90;;;;;;5043279;28;20239;-69
2023/05/01 06:35:34;;;;;;;4.97;4.40;;;17.10;90.00;;;;;;5043627;28;20175;-66
2023/05/01 06:38:01;;;;;;;4.10;2.90;;;17.20;88.50;;;;;;5041530;28;20755;-66
2023/05/01 06:40:27;;;;;;;5.00;3.50;;;16.60;85.90;;;;;;5038301;28;20413;-66
2023/05/01 06:42:52;;;;;;;4.03;3.33;;;16.30;87.90;;;;;;5042835;28;20464;-67
2023/05/01 06:45:18;;;;;;;9.07;3.80;;;16.70;89.70;;;;;;5043212;28;20173;-67
2023/05/01 06:47:44;;;;;;;5.00;4.40;;;17.00;86.50;;;;;;5037533;28;20204;-69
2023/05/01 06:50:10;;;;;;;4.90;3.87;;;17.00;88.30;;;;;;5049633;28;20223;-66
2023/05/01 06:52:35;;;;;;;5.33;3.83;;;17.10;90.70;;;;;;5046346;28;20194;-67
2023/05/01 06:55:01;;;;;;;4.07;3.17;;;17.40;88.50;;;;;;5041368;28;20419;-66
2023/05/01 06:57:26;;;;;;;3.87;2.90;;;16.90;88.50;;;;;;5041487;28;20541;-68
2023/05/01 06:59:52;;;;;;;6.00;3.33;;;17.10;87.60;;;;;;5042271;28;20544;-68
2023/05/01 07:02:18;;;;;;;4.80;3.30;;;18.20;85.00;;;;;;5043159;28;20242;-68
2023/05/01 07:04:44;;;;;;;4.10;2.73;;;18.30;83.60;;;;;;5048275;28;20417;-66
2023/05/01 07:07:09;;;;;;;5.07;3.40;;;18.10;86.60;;;;;;5032968;28;20192;-68
2023/05/01 07:09:35;;;;;;;3.87;3.50;;;18.50;83.40;;;;;;5047767;28;20209;-67
2023/05/01 07:12:02;;;;;;;3.53;3.23;;;19.00;80.50;;;;;;5041159;28;20178;-66
2023/05/01 07:14:27;;;;;;;4.10;3.20;;;17.50;82.70;;;;;;5025096;28;20171;-67
2023/05/01 07:16:54;;;;;;;7.30;3.03;;;18.20;83.70;;;;;;5042154;28;20411;-69
2023/05/01 07:19:20;;;;;;;4.63;3.07;;;19.20;82.00;;;;;;5042927;28;20230;-67
2023/05/01 07:21:45;;;;;;;3.37;3.07;;;19.80;76.60;;;;;;5042250;28;20424;-67
2023/05/01 07:24:12;;;;;;;4.30;3.13;;;19.10;76.30;;;;;;5040998;28;20195;-66
2023/05/01 07:26:37;;;;;;;4.27;3.13;;;19.60;75.80;;;;;;5042639;28;20561;-67
2023/05/01 07:29:03;;;;;;;5.57;3.57;;;20.00;75.40;;;;;;5042410;28;20429;-67
2023/05/01 07:31:29;;;;;;;3.27;2.97;;;18.90;75.60;;;;;;5035640;28;20256;-67
2023/05/01 07:33:55;;;;;;;5.10;2.73;;;18.20;75.50;;;;;;5040116;28;20487;-67
2023/05/01 07:36:21;;;;;;;4.90;3.70;;;18.60;78.40;;;;;;5045952;28;20181;-68
2023/05/01 07:38:47;;;;;;;4.80;2.70;;;18.70;74.40;;;;;;5042184;28;20444;-68
2023/05/01 07:41:13;;;;;;;4.67;3.00;;;18.20;77.30;;;;;;5048581;28;20409;-67
2023/05/01 07:43:39;;;;;;;4.53;3.10;;;18.60;76.50;;;;;;5042568;28;20549;-67
2023/05/01 07:46:05;;;;;;;5.00;2.90;;;19.70;75.90;;;;;;5042241;28;20198;-67
2023/05/01 07:48:31;;;;;;;6.50;2.97;;;19.60;72.00;;;;;;5046733;28;20195;-66
2023/05/01 07:51:01;;;;;;;5.00;3.20;;;19.00;73.90;;;;;;5048155;28;20618;-70
2023/05/01 07:53:27;;;;;;;5.50;2.87;;;18.60;72.80;;;;;;5039646;28;20435;-67
2023/05/01 07:55:52;;;;;;;3.10;2.57;;;18.50;73.70;;;;;;5043856;28;20413;-67
2023/05/01 07:58:18;;;;;;;5.73;3.20;;;19.40;73.70;;;;;;5035862;28;20664;-67
2023/05/01 08:00:44;;;;;;;4.50;2.90;;;19.00;72.80;;;;;;5047625;28;20182;-68
2023/05/01 08:03:11;;;;;;;2.70;2.40;;;18.50;74.50;;;;;;5044097;28;20192;-67
2023/05/01 08:05:40;;;;;;;3.30;2.97;;;19.00;76.10;;;;;;5047366;28;20406;-67
2023/05/01 08:08:05;;;;;;;3.77;3.30;;;18.80;75.30;;;;;;5051211;28;20411;-67
2023/05/01 08:10:31;;;;;;;5.63;3.10;;;18.90;74.50;;;;;;5037207;28;20838;-67
2023/05/01 08:12:57;;;;;;;11.90;3.07;;;18.50;75.60;;;;;;5049546;28;20195;-67
2023/05/01 08:15:23;;;;;;;2.87;2.50;;;18.80;77.40;;;;;;5050421;28;20170;-67
2023/05/01 08:17:49;;;;;;;4.77;2.70;;;19.10;77.10;;;;;;5052516;28;20180;-67
2023/05/01 08:20:15;;;;;;;7.60;2.70;;;19.50;73.60;;;;;;5045557;28;20908;-67
2023/05/01 08:22:41;;;;;;;3.53;2.80;;;20.20;69.40;;;;;;5050667;28;20429;-66
2023/05/01 08:25:07;;;;;;;3.93;3.07;;;19.50;70.40;;;;;;5048352;28;20525;-68
2023/05/01 08:27:32;;;;;;;2.93;2.60;;;19.30;72.20;;;;;;5037814;28;20223;-67
2023/05/01 08:29:58;;;;;;;5.07;2.73;;;19.00;73.20;;;;;;5047693;28;20551;-68
2023/05/01 08:32:24;;;;;;;3.13;2.83;;;19.30;72.50;;;;;;5051920;28;20574;-67
2023/05/01 08:34:49;;;;;;;3.43;2.70;;;20.40;71.50;;;;;;5052297;28;20190;-67
2023/05/01 08:37:15;;;;;;;4.00;3.00;;;20.40;68.60;;;;;;5042546;28;20204;-67
2023/05/01 08:39:41;;;;;;;5.10;2.50;;;21.10;66.70;;;;;;5034309;28;20250;-67
2023/05/01 08:42:07;;;;;;;6.20;3.10;;;21.00;65.60;;;;;;5047555;28;20449;-68
2023/05/01 08:44:39;;;;;;;3.30;3.00;;;21.70;63.00;;;;;;5046819;28;20224;-68
2023/05/01 08:47:20;;;;;;;4.73;2.87;;;21.40;62.70;;;;;;5048631;28;20463;-68
2023/05/01 08:49:49;;;;;;;3.70;2.33;;;21.90;62.10;;;;;;5045719;28;20412;-68
2023/05/01 08:52:15;;;;;;;3.60;2.83;;;21.80;61.80;;;;;;5048194;28;20428;-68
2023/05/01 08:54:46;;;;;;;4.40;2.40;;;21.00;66.50;;;;;;5049900;28;20717;-68
2023/05/01 08:57:12;;;;;;;4.40;2.37;;;21.70;61.50;;;;;;5041759;28;20179;-68
2023/05/01 08:59:39;;;;;;;4.07;3.10;;;21.60;61.50;;;;;;5045225;28;20917;-67
2023/05/01 09:02:06;;;;;;;4.27;3.00;;;21.90;60.50;;;;;;5045238;28;20459;-67
2023/05/01 09:04:35;;;;;;;4.37;2.60;;;21.00;61.70;;;;;;5050579;28;20441;-67
2023/05/01 09:07:01;;;;;;;5.50;3.27;;;20.30;59.90;;;;;;5039933;28;20461;-67
2023/05/01 09:09:31;;;;;;;4.70;2.30;;;20.50;60.70;;;;;;5039502;28;20441;-67
2023/05/01 09:12:12;;;;;;;4.43;3.30;;;20.50;60.70;;;;;;5043124;28;20487;-67
2023/05/01 09:14:38;;;;;;;6.00;2.37;;;19.60;60.50;;;;;;5048991;28;20432;-67
2023/05/01 09:17:04;;;;;;;3.80;2.47;;;20.80;59.50;;;;;;5043659;28;20420;-68
2023/05/01 09:19:29;;;;;;;3.97;2.10;;;20.10;63.20;;;;;;5045073;28;20908;-68
2023/05/01 09:21:55;;;;;;;3.83;2.20;;;20.00;60.20;;;;;;5042552;28;20175;-68
2023/05/01 09:24:24;;;;;;;4.33;2.30;;;20.00;60.10;;;;;;5044207;28;20198;-68
2023/05/01 09:26:50;;;;;;;2.63;1.93;;;20.20;60.70;;;;;;5044226;28;20194;-67
2023/05/01 09:29:51;;;;;;;6.00;2.40;;;20.90;60.60;;;;;;5036250;28;20438;-67
2023/05/01 09:32:21;;;;;;;9.83;3.60;;;20.80;62.80;;;;;;4979901;28;20862;-68
2023/05/01 09:34:48;;;;;;;5.20;2.60;;;20.30;62.10;;;;;;5038163;28;20793;-68
2023/05/01 09:37:30;;;;;;;3.47;2.20;;;20.40;60.20;;;;;;5041266;28;20406;-68
2023/05/01 09:40:14;;;;;;;3.50;2.53;;;21.20;60.60;;;;;;5042972;28;20431;-67
2023/05/01 09:42:48;;;;;;;3.87;2.50;;;22.00;58.20;;;;;;5044431;28;20479;-66
2023/05/01 09:45:14;;;;;;;2.50;2.30;;;22.30;57.50;;;;;;5038325;28;20415;-67
2023/05/01 09:47:41;;;;;;;3.17;2.27;;;21.80;59.50;;;;;;5039987;28;20465;-68
2023/05/01 09:50:07;;;;;;;3.40;2.60;;;21.00;61.30;;;;;;5036289;28;20862;-68
2023/05/01 09:52:33;;;;;;;2.87;2.30;;;20.50;59.80;;;;;;5047410;28;20428;-68
2023/05/01 09:55:11;;;;;;;3.70;2.50;;;20.30;59.90;;;;;;5035766;28;20492;-67
2023/05/01 09:57:37;;;;;;;3.53;2.60;;;20.70;58.60;;;;;;5044681;28;20181;-67
2023/05/01 10:00:07;;;;;;;2.97;2.47;;;20.60;58.90;;;;;;5044110;28;20925;-70
2023/05/01 10:02:33;;;;;;;3.97;2.23;;;20.00;59.90;;;;;;5041075;28;20443;-68
2023/05/01 10:04:59;;;;;;;4.07;2.20;;;18.90;62.80;;;;;;5047245;28;20415;-68
2023/05/01 10:07:25;;;;;;;7.33;3.50;;;19.50;64.60;;;;;;5043960;28;20948;-68
2023/05/01 10:09:52;;;;;;;4.93;2.70;;;19.50;63.30;;;;;;5043171;28;20563;-67
2023/05/01 10:12:28;;;;;;;5.10;2.77;;;19.40;67.30;;;;;;5044402;28;20430;-68
2023/05/01 10:14:55;;;;;;;4.47;2.57;;;19.30;64.30;;;;;;5046176;28;20452;-69
2023/05/01 10:17:22;;;;;;;4.57;2.93;;;19.60;62.20;;;;;;5038843;28;20466;-70
2023/05/01 10:19:48;;;;;;;3.73;2.80;;;19.40;61.70;;;;;;5039972;28;20744;-69
2023/05/01 10:22:15;;;;;;;3.47;2.97;;;19.10;63.30;;;;;;5040284;28;20432;-68
2023/05/01 10:24:42;;;;;;;3.40;2.67;;;19.20;62.70;;;;;;5045643;28;20418;-68
2023/05/01 10:27:09;;;;;;;2.47;2.20;;;19.20;63.60;;;;;;5036901;28;20825;-68
2023/05/01 10:29:36;;;;;;;6.57;2.97;;;19.00;65.20;;;;;;5044530;28;20449;-69
2023/05/01 10:32:05;;;;;;;4.63;3.67;;;18.70;67.30;;;;;;5044815;28;20470;-69
2023/05/01 10:34:36;;;;;;;4.03;3.33;;;18.40;64.70;;;;;;5046952;28;20408;-67
2023/05/01 10:37:08;;;;;;;3.13;2.93;;;18.30;65.10;;;;;;5041541;28;20414;-68
2023/05/01 10:39:35;;;;;;;4.37;2.90;;;18.30;67.10;;;;;;5042886;28;20490;-70
2023/05/01 10:42:07;;;;;;;4.10;2.53;;;18.20;69.50;;;;;;5047226;28;20418;-69
2023/05/01 10:44:33;;;;;;;8.17;2.63;;;18.20;66.20;;;;;;5040570;28;20500;-70
2023/05/01 10:47:19;;;;;;;5.10;2.93;;;18.10;66.90;;;;;;5048698;28;20988;-68
2023/05/01 10:50:15;;;;;;;5.00;2.70;;;18.20;66.80;;;;;;5043989;28;20409;-69
2023/05/01 10:53:08;;;;;;;2.73;2.20;;;18.50;66.50;;;;;;5029237;28;20436;-67
2023/05/01 10:55:43;;;;;;;5.03;3.37;;;18.40;68.00;;;;;;5038633;28;20414;-67
2023/05/01 10:58:13;;;;;;;3.53;2.90;;;18.60;67.70;;;;;;5041833;28;20428;-69
2023/05/01 11:00:40;;;;;;;3.77;2.60;;;18.50;66.30;;;;;;5050796;28;20878;-69
2023/05/01 11:03:21;;;;;;;3.67;3.30;;;18.70;66.60;;;;;;5040017;28;20436;-69
2023/05/01 11:05:58;;;;;;;5.27;3.20;;;18.70;66.80;;;;;;5048437;28;20416;-67
2023/05/01 11:08:37;;;;;;;9.83;2.40;;;18.80;66.60;;;;;;5043536;28;20406;-67
2023/05/01 11:11:21;;;;;;;3.80;3.47;;;19.00;67.70;;;;;;5049649;28;20909;-68
2023/05/01 11:14:07;;;;;;;3.40;2.67;;;18.90;67.40;;;;;;5041141;28;20429;-68
2023/05/01 11:16:34;;;;;;;5.63;3.17;;;18.70;67.90;;;;;;5049737;28;20890;-68
2023/05/01 11:18:59;;;;;;;3.07;2.67;;;18.60;63.80;;;;;;5040915;28;20468;-69
2023/05/01 11:21:32;;;;;;;4.90;3.23;;;18.30;65.70;;;;;;5066932;23;20485;-67
2023/05/01 11:24:08;;;;;;;4.50;2.97;;;18.20;67.20;;;;;;5048688;28;20182;-67
2023/05/01 11:26:38;;;;;;;6.67;3.33;;;17.90;66.60;;;;;;5049155;28;20460;-68
2023/05/01 11:29:05;;;;;;;6.77;3.00;;;18.00;66.80;;;;;;5046980;28;20401;-66
2023/05/01 11:31:31;;;;;;;10.20;2.73;;;18.20;65.40;;;;;;5047656;28;20510;-68
2023/05/01 11:34:00;;;;;;;4.63;3.63;;;18.20;66.00;;;;;;5047235;28;20468;-67
2023/05/01 11:36:29;;;;;;;3.73;2.53;;;18.50;67.50;;;;;;5042452;28;20468;-67
2023/05/01 11:38:57;;;;;;;3.97;3.67;;;18.80;65.60;;;;;;5043151;28;20914;-68
2023/05/01 11:41:26;;;;;;;3.33;2.00;;;19.00;64.10;;;;;;5045622;28;20422;-68
2023/05/01 11:43:57;;;;;;;4.70;3.00;;;19.10;63.00;;;;;;5052432;28;20405;-68
2023/05/01 11:46:31;;;;;;;5.60;2.83;;;19.00;64.40;;;;;;5044318;28;20457;-68
2023/05/01 11:48:58;;;;;;;2.80;2.47;;;18.90;64.20;;;;;;5049779;28;20479;-67
2023/05/01 11:51:25;;;;;;;3.13;2.63;;;19.30;65.70;;;;;;5047659;28;20490;-68
2023/05/01 11:54:01;;;;;;;4.00;3.40;;;19.70;65.40;;;;;;5042870;28;20423;-68
2023/05/01 11:56:27;;;;;;;5.87;3.33;;;19.90;63.60;;;;;;5044526;28;20504;-68
2023/05/01 11:58:54;;;;;;;6.20;3.17;;;20.10;62.70;;;;;;5040986;28;20468;-67
2023/05/01 12:01:19;;;;;;;4.43;3.47;;;19.70;63.30;;;;;;5051771;28;20205;-68
2023/05/01 12:03:45;;;;;;;5.40;3.17;;;19.60;63.90;;;;;;5047972;28;20422;-69
2023/05/01 12:06:14;;;;;;;4.23;3.17;;;19.90;63.60;;;;;;5044796;28;20409;-68
2023/05/01 12:08:46;;;;;;;5.90;3.40;;;20.00;62.20;;;;;;5048030;28;20164;-68
2023/05/01 12:11:12;;;;;;;3.43;3.10;;;19.70;62.10;;;;;;5032457;28;20555;-68
2023/05/01 12:13:39;;;;;;;4.50;4.10;;;19.50;62.30;;;;;;5044423;28;20403;-67
2023/05/01 12:16:05;;;;;;;5.30;3.67;;;19.50;64.20;;;;;;5039923;28;20527;-68
2023/05/01 12:18:31;;;;;;;5.37;3.70;;;19.40;64.70;;;;;;5037388;28;20412;-68
2023/05/01 12:20:57;;;;;;;8.53;3.80;;;19.10;65.10;;;;;;5045611;28;20638;-68
2023/05/01 12:23:38;;;;;;;4.70;3.27;;;19.40;63.40;;;;;;5050544;28;20416;-68
2023/05/01 12:26:30;;;;;;;3.23;2.70;;;19.40;64.30;;;;;;5044066;28;20253;-68
2023/05/01 12:29:00;;;;;;;4.20;2.60;;;19.60;65.30;;;;;;5036750;28;20436;-69
2023/05/01 12:31:27;;;;;;;5.20;3.97;;;19.80;64.00;;;;;;5045837;28;20863;-68
2023/05/01 12:33:57;;;;;;;3.20;2.90;;;19.90;63.10;;;;;;5046032;28;20492;-68
2023/05/01 12:36:26;;;;;;;5.73;3.90;;;19.70;62.10;;;;;;5046548;28;20859;-69
2023/05/01 12:39:03;;;;;;;5.37;3.10;;;19.60;64.60;;;;;;5048892;28;20450;-68
2023/05/01 12:41:50;;;;;;;3.90;3.50;;;19.70;62.90;;;;;;5045956;28;20479;-70
2023/05/01 12:44:26;;;;;;;3.70;3.33;;;19.80;62.40;;;;;;5035379;28;20443;-68
2023/05/01 12:46:59;;;;;;;5.13;3.00;;;19.80;62.30;;;;;;5039156;28;20463;-68
2023/05/01 12:49:26;;;;;;;5.40;4.50;;;19.90;62.90;;;;;;5045486;28;20413;-68
2023/05/01 12:51:56;;;;;;;9.30;2.97;;;19.60;64.40;;;;;;5045368;28;20429;-68
2023/05/01 12:54:30;;;;;;;4.40;4.00;;;19.90;62.10;;;;;;5043669;28;20402;-68
2023/05/01 12:57:08;;;;;;;5.53;3.50;;;19.70;63.40;;;;;;5041726;28;20889;-68
2023/05/01 12:59:36;;;;;;;7.00;3.23;;;19.80;64.80;;;;;;5043689;28;20497;-68